createdAt,value
2022-08-23T00:02:22.941Z,0.40
2022-08-23T00:05:07.726Z,0.50
2022-08-23T00:07:42.402Z,0.75
2022-08-23T00:10:11.962Z,0.30
2022-08-23T00:12:39.849Z,0.52
2022-08-23T00:15:08.956Z,0.60
2022-08-23T00:17:37.482Z,0.70
2022-08-23T00:20:08.039Z,0.60
2022-08-23T00:22:35.954Z,0.40
2022-08-23T00:25:04.655Z,0.32
2022-08-23T00:27:33.529Z,0.30
2022-08-23T00:30:01.583Z,0.45
2022-08-23T00:32:32.993Z,0.50
2022-08-23T00:35:01.112Z,0.50
2022-08-23T00:37:32.157Z,0.60
2022-08-23T00:40:00.547Z,0.60
2022-08-23T00:43:22.091Z,0.50
2022-08-23T00:46:12.594Z,0.40
2022-08-23T00:48:40.383Z,0.40
2022-08-23T00:51:26.099Z,0.38
2022-08-23T00:54:01.679Z,0.40
2022-08-23T00:56:33.493Z,0.50
2022-08-23T00:59:00.772Z,0.60
2022-08-23T01:01:28.833Z,0.45
2022-08-23T01:04:04.342Z,0.80
2022-08-23T01:06:34.607Z,0.60
2022-08-23T01:09:09.161Z,0.50
2022-08-23T01:11:55.109Z,0.60
2022-08-23T01:14:54.447Z,0.88
2022-08-23T01:17:27.274Z,0.98
2022-08-23T01:20:22.744Z,0.70
2022-08-23T01:23:21.357Z,0.73
2022-08-23T01:25:48.569Z,1.05
2022-08-23T01:28:16.014Z,1.10
2022-08-23T01:30:46.260Z,1.10
2022-08-23T01:33:13.665Z,1.00
2022-08-23T01:35:49.275Z,0.80
2022-08-23T01:38:17.316Z,0.95
2022-08-23T01:40:45.270Z,1.02
2022-08-23T01:43:13.663Z,1.20
2022-08-23T01:45:42.887Z,1.70
2022-08-23T01:48:12.808Z,1.85
2022-08-23T01:50:40.756Z,1.85
2022-08-23T01:53:08.539Z,1.55
2022-08-23T01:55:36.644Z,1.17
2022-08-23T01:58:05.408Z,1.00
2022-08-23T02:00:36.681Z,0.90
2022-08-23T02:03:06.494Z,1.40
2022-08-23T02:05:35.099Z,1.38
2022-08-23T02:08:22.193Z,2.10
2022-08-23T02:10:51.182Z,1.45
2022-08-23T02:13:19.201Z,1.58
2022-08-23T02:15:51.382Z,1.52
2022-08-23T02:18:20.888Z,2.05
2022-08-23T02:20:50.349Z,2.40
2022-08-23T02:23:18.972Z,2.08
2022-08-23T02:25:46.660Z,2.60
2022-08-23T02:28:13.959Z,3.70
2022-08-23T02:30:41.148Z,4.38
2022-08-23T02:33:10.508Z,3.92
2022-08-23T02:35:38.741Z,3.28
2022-08-23T02:38:08.532Z,3.45
2022-08-23T02:40:36.537Z,4.75
2022-08-23T02:43:05.687Z,4.95
2022-08-23T02:45:34.436Z,4.78
2022-08-23T02:48:01.862Z,4.50
2022-08-23T02:50:37.004Z,4.30
2022-08-23T02:53:04.475Z,4.13
2022-08-23T02:55:33.343Z,4.55
2022-08-23T02:58:00.701Z,4.50
2022-08-23T03:00:28.836Z,5.20
2022-08-23T03:02:56.853Z,4.38
2022-08-23T03:05:25.116Z,4.85
2022-08-23T03:07:52.376Z,6.05
2022-08-23T03:10:19.670Z,5.55
2022-08-23T03:12:53.373Z,4.70
2022-08-23T03:15:20.679Z,6.43
2022-08-23T03:17:48.961Z,5.57
2022-08-23T03:20:16.284Z,5.65
2022-08-23T03:22:48.245Z,5.82
2022-08-23T03:25:18.304Z,4.85
2022-08-23T03:28:14.477Z,5.95
2022-08-23T03:30:44.784Z,4.80
2022-08-23T03:33:12.819Z,4.50
2022-08-23T03:35:40.645Z,5.13
2022-08-23T03:38:09.978Z,4.47
2022-08-23T03:40:37.154Z,4.43
2022-08-23T03:43:05.647Z,4.43
2022-08-23T03:45:33.475Z,4.47
2022-08-23T03:48:02.052Z,4.57
2022-08-23T03:50:32.472Z,4.75
2022-08-23T03:52:59.673Z,4.95
2022-08-23T03:55:26.920Z,5.03
2022-08-23T03:57:54.364Z,4.85
2022-08-23T04:00:22.054Z,4.68
2022-08-23T04:02:52.006Z,4.65
2022-08-23T04:05:20.432Z,3.83
2022-08-23T04:07:56.465Z,3.88
2022-08-23T04:10:25.320Z,5.82
2022-08-23T04:12:55.172Z,4.65
2022-08-23T04:15:22.677Z,4.40
2022-08-23T04:17:49.910Z,4.60
2022-08-23T04:20:17.971Z,4.63
2022-08-23T04:22:58.378Z,4.10
2022-08-23T04:25:34.619Z,3.90
2022-08-23T04:28:08.292Z,4.10
2022-08-23T04:30:35.610Z,4.22
2022-08-23T04:33:10.597Z,3.97
2022-08-23T04:35:41.465Z,4.30
2022-08-23T04:38:18.557Z,3.95
2022-08-23T04:41:13.244Z,3.85
2022-08-23T04:43:42.132Z,3.63
2022-08-23T04:46:10.583Z,3.15
2022-08-23T04:48:38.072Z,4.60
2022-08-23T04:51:06.063Z,3.88
2022-08-23T04:53:36.486Z,4.00
2022-08-23T04:56:23.667Z,5.00
2022-08-23T04:58:51.809Z,4.88
2022-08-23T05:01:19.300Z,4.88
2022-08-23T05:03:47.445Z,4.75
2022-08-23T05:06:14.961Z,5.18
2022-08-23T05:08:42.299Z,4.72
2022-08-23T05:11:11.776Z,5.47
2022-08-23T05:13:40.920Z,3.78
2022-08-23T05:16:10.414Z,4.30
2022-08-23T05:18:43.483Z,3.53
2022-08-23T05:21:15.715Z,4.75
2022-08-23T05:23:43.993Z,4.53
2022-08-23T05:26:21.075Z,4.43
2022-08-23T05:28:50.027Z,3.85
2022-08-23T05:31:22.867Z,5.10
2022-08-23T05:33:53.265Z,5.35
2022-08-23T05:36:51.636Z,5.57
2022-08-23T05:39:32.940Z,5.10
2022-08-23T05:42:10.700Z,5.53
2022-08-23T05:44:38.219Z,4.60
2022-08-23T05:47:11.095Z,5.90
2022-08-23T05:49:49.788Z,5.63
2022-08-23T05:52:16.948Z,5.20
2022-08-23T05:54:44.538Z,5.72
2022-08-23T05:57:25.547Z,4.72
2022-08-23T05:59:52.810Z,7.80
2022-08-23T06:02:20.162Z,6.32
2022-08-23T06:04:47.288Z,5.28
2022-08-23T06:07:14.727Z,5.32
2022-08-23T06:09:41.933Z,6.07
2022-08-23T06:12:10.735Z,5.15
2022-08-23T06:14:39.355Z,5.28
2022-08-23T06:17:06.638Z,4.97
2022-08-23T06:19:35.223Z,5.60
2022-08-23T06:22:19.834Z,5.20
2022-08-23T06:24:48.322Z,5.07
2022-08-23T06:27:16.725Z,5.47
2022-08-23T06:29:44.534Z,5.32
2022-08-23T06:32:30.658Z,5.00
2022-08-23T06:35:39.933Z,6.57
2022-08-23T06:38:08.741Z,6.55
2022-08-23T06:41:12.389Z,7.07
2022-08-23T06:44:04.017Z,4.95
2022-08-23T06:46:54.143Z,4.57
2022-08-23T06:49:21.491Z,5.15
2022-08-23T06:51:52.345Z,5.32
2022-08-23T06:54:32.514Z,5.65
2022-08-23T06:57:00.380Z,4.95
2022-08-23T06:59:31.303Z,5.03
2022-08-23T07:02:04.273Z,5.05
2022-08-23T07:04:48.525Z,5.45
2022-08-23T07:07:39.634Z,6.03
2022-08-23T07:10:15.225Z,6.10
2022-08-23T07:12:43.615Z,5.90
2022-08-23T07:15:12.497Z,5.75
2022-08-23T07:17:42.600Z,6.32
2022-08-23T07:20:10.062Z,6.70
2022-08-23T07:22:40.571Z,6.18
2022-08-23T07:25:09.288Z,6.22
2022-08-23T07:27:38.244Z,6.18
2022-08-23T07:30:08.929Z,7.43
2022-08-23T07:32:38.538Z,8.07
2022-08-23T07:35:22.496Z,7.75
2022-08-23T07:37:52.751Z,7.53
2022-08-23T07:40:20.488Z,5.90
2022-08-23T07:42:51.103Z,6.47
2022-08-23T07:45:18.843Z,6.10
2022-08-23T07:47:54.365Z,5.72
2022-08-23T07:50:23.095Z,6.15
2022-08-23T07:52:51.146Z,4.47
2022-08-23T07:55:18.552Z,5.53
2022-08-23T07:58:03.223Z,4.63
2022-08-23T08:00:48.749Z,4.30
2022-08-23T08:03:33.149Z,4.32
2022-08-23T08:06:31.156Z,4.13
2022-08-23T08:08:59.412Z,4.22
2022-08-23T08:11:34.274Z,3.78
2022-08-23T08:14:07.627Z,3.50
2022-08-23T08:16:40.445Z,3.33
2022-08-23T08:19:12.436Z,3.70
2022-08-23T08:21:42.449Z,4.10
2022-08-23T08:24:27.342Z,3.30
2022-08-23T08:27:01.102Z,4.85
2022-08-23T08:29:28.560Z,3.15
2022-08-23T08:31:56.616Z,3.08
2022-08-23T08:34:23.966Z,3.30
2022-08-23T08:36:54.047Z,3.10
2022-08-23T08:42:24.699Z,2.63
2022-08-23T08:45:03.001Z,2.58
2022-08-23T08:47:39.529Z,2.30
2022-08-23T08:50:07.097Z,2.70
2022-08-23T08:52:45.496Z,2.50
2022-08-23T08:55:34.441Z,2.53
2022-08-23T08:58:05.057Z,2.90
2022-08-23T09:00:38.164Z,2.70
2022-08-23T09:03:14.777Z,2.92
2022-08-23T09:05:56.403Z,2.35
2022-08-23T09:08:45.058Z,2.53
2022-08-23T09:11:12.345Z,2.60
2022-08-23T09:13:47.604Z,3.05
2022-08-23T09:16:37.710Z,2.88
2022-08-23T09:19:05.655Z,3.30
2022-08-23T09:22:02.055Z,3.80
2022-08-23T09:24:31.503Z,3.67
2022-08-23T09:27:04.892Z,3.53
2022-08-23T09:29:35.047Z,3.58
2022-08-23T09:32:28.232Z,3.35
2022-08-23T09:35:09.460Z,3.20
2022-08-23T09:37:47.216Z,3.40
2022-08-23T09:40:41.378Z,2.28
2022-08-23T09:43:26.187Z,2.00
2022-08-23T09:45:56.969Z,2.70
2022-08-23T09:48:45.307Z,2.72
2022-08-23T09:51:30.064Z,2.38
2022-08-23T09:54:20.990Z,2.30
2022-08-23T09:56:55.199Z,1.77
2022-08-23T09:59:47.796Z,2.30
2022-08-23T10:02:33.579Z,2.30
2022-08-23T10:05:36.271Z,2.25
2022-08-23T10:08:07.670Z,1.90
2022-08-23T10:10:51.138Z,1.98
2022-08-23T10:13:23.373Z,1.50
2022-08-23T10:15:56.409Z,2.08
2022-08-23T10:18:51.253Z,1.38
2022-08-23T10:21:29.095Z,1.58
2022-08-23T10:24:14.676Z,1.40
2022-08-23T10:27:26.038Z,1.08
2022-08-23T10:30:07.898Z,1.48
2022-08-23T10:32:35.210Z,1.33
2022-08-23T10:35:26.810Z,1.10
2022-08-23T10:38:23.304Z,1.27
2022-08-23T10:41:11.931Z,1.20
2022-08-23T10:43:52.536Z,1.25
2022-08-23T10:46:23.089Z,0.88
2022-08-23T10:48:55.653Z,1.45
2022-08-23T10:51:32.024Z,0.95
2022-08-23T10:54:06.422Z,1.15
2022-08-23T10:56:35.442Z,1.30
2022-08-23T10:59:18.931Z,1.20
2022-08-23T11:01:55.220Z,1.40
2022-08-23T11:04:40.938Z,1.45
2022-08-23T11:07:31.187Z,1.35
2022-08-23T11:10:05.632Z,1.73
2022-08-23T11:12:56.594Z,1.13
2022-08-23T11:15:45.349Z,1.00
2022-08-23T11:18:33.113Z,1.60
2022-08-23T11:21:12.611Z,1.13
2022-08-23T11:23:47.390Z,1.17
2022-08-23T11:26:23.246Z,1.48
2022-08-23T11:28:54.098Z,1.10
2022-08-23T11:31:32.046Z,1.73
2022-08-23T11:34:11.510Z,1.25
2022-08-23T11:36:39.393Z,1.15
2022-08-23T11:39:10.774Z,1.40
2022-08-23T11:41:56.725Z,1.10
2022-08-23T11:44:39.650Z,1.33
2022-08-23T11:47:11.640Z,1.20
2022-08-23T11:49:40.459Z,0.80
2022-08-23T11:52:27.968Z,1.60
2022-08-23T11:54:57.938Z,1.23
2022-08-23T11:57:43.776Z,1.10
2022-08-23T12:00:28.655Z,1.00
2022-08-23T12:03:22.091Z,1.10
2022-08-23T12:05:52.601Z,1.23
2022-08-23T12:08:37.778Z,1.20
2022-08-23T12:11:09.432Z,1.08
2022-08-23T12:13:51.074Z,0.95
2022-08-23T12:16:21.403Z,0.80
2022-08-23T12:18:53.104Z,0.85
2022-08-23T12:21:43.989Z,0.60
2022-08-23T12:24:26.209Z,0.93
2022-08-23T12:26:59.276Z,1.05
2022-08-23T12:29:38.067Z,0.47
2022-08-23T12:32:23.888Z,0.60
2022-08-23T12:35:18.935Z,0.60
2022-08-23T12:37:57.864Z,0.80
2022-08-23T12:40:35.959Z,1.00
2022-08-23T12:43:22.666Z,0.50
2022-08-23T12:46:02.088Z,1.20
2022-08-23T12:48:45.036Z,0.73
2022-08-23T12:51:12.777Z,0.90
2022-08-23T12:53:45.508Z,0.90
2022-08-23T12:56:31.591Z,1.23
2022-08-23T12:59:07.485Z,0.70
2022-08-23T13:01:37.538Z,0.68
2022-08-23T13:04:10.966Z,0.70
2022-08-23T13:06:46.877Z,0.93
2022-08-23T13:09:26.800Z,0.80
2022-08-23T13:11:54.155Z,0.90
2022-08-23T13:14:34.504Z,0.60
2022-08-23T13:17:18.790Z,0.52
2022-08-23T13:19:48.891Z,0.63
2022-08-23T13:22:22.372Z,0.45
2022-08-23T13:28:00.066Z,0.47
2022-08-23T13:30:30.749Z,0.32
2022-08-23T13:33:10.682Z,0.32
2022-08-23T13:35:47.007Z,0.28
2022-08-23T13:38:20.914Z,0.30
2022-08-23T13:40:51.673Z,0.10
2022-08-23T13:43:30.071Z,0.30
2022-08-23T13:46:22.443Z,0.10
2022-08-23T13:49:00.366Z,0.60
2022-08-23T13:51:36.986Z,0.40
2022-08-23T13:54:08.320Z,0.30
2022-08-23T13:56:40.870Z,0.50
2022-08-23T13:59:26.785Z,0.40
2022-08-23T14:02:07.509Z,0.32
2022-08-23T14:04:35.369Z,0.30
2022-08-23T14:07:02.550Z,0.30
2022-08-23T14:09:30.054Z,0.20
2022-08-23T14:12:02.984Z,0.17
2022-08-23T14:14:33.188Z,0.10
2022-08-23T14:17:02.734Z,0.25
2022-08-23T14:22:19.326Z,0.25
2022-08-23T14:24:46.752Z,0.40
2022-08-23T14:27:14.750Z,0.30
2022-08-23T14:29:41.914Z,0.20
2022-08-23T14:32:09.171Z,0.30
2022-08-23T14:34:36.374Z,0.30
2022-08-23T14:39:51.011Z,0.32
2022-08-23T14:42:22.184Z,0.20
2022-08-23T14:44:49.599Z,0.35
2022-08-23T14:47:17.610Z,0.35
2022-08-23T14:49:44.958Z,0.35
2022-08-23T14:52:14.323Z,0.30
2022-08-23T14:54:41.822Z,0.47
2022-08-23T14:57:09.072Z,0.40
2022-08-23T14:59:36.348Z,0.50
2022-08-23T15:02:05.100Z,0.63
2022-08-23T15:04:34.476Z,0.45
2022-08-23T15:07:19.945Z,0.50
2022-08-23T15:09:54.640Z,0.50
2022-08-23T15:15:20.900Z,0.40
2022-08-23T15:18:00.469Z,0.50
2022-08-23T15:20:34.021Z,0.30
2022-08-23T15:23:01.684Z,0.40
2022-08-23T15:25:33.415Z,0.40
2022-08-23T15:28:03.814Z,0.47
2022-08-23T15:30:33.542Z,0.60
2022-08-23T15:33:01.133Z,0.47
2022-08-23T15:35:29.311Z,0.80
2022-08-23T15:37:57.413Z,0.60
2022-08-23T15:40:26.020Z,0.40
2022-08-23T15:42:53.511Z,0.57
2022-08-23T15:45:20.804Z,0.80
2022-08-23T15:47:56.977Z,0.70
2022-08-23T15:50:27.222Z,0.70
2022-08-23T15:52:55.053Z,0.40
2022-08-23T15:55:22.290Z,0.50
2022-08-23T15:57:51.918Z,0.70
2022-08-23T16:00:22.110Z,0.30
2022-08-23T16:03:27.846Z,0.77
2022-08-23T16:05:40.042Z,0.77
2022-08-23T16:08:08.804Z,0.65
2022-08-23T16:10:36.132Z,0.63
2022-08-23T16:13:03.762Z,0.43
2022-08-23T16:15:31.657Z,0.90
2022-08-23T16:17:59.071Z,0.73
2022-08-23T16:20:26.433Z,0.70
2022-08-23T16:22:53.658Z,0.95
2022-08-23T16:25:20.935Z,0.70
2022-08-23T16:27:48.303Z,1.10
2022-08-23T16:30:15.693Z,1.40
2022-08-23T16:32:43.233Z,0.90
2022-08-23T16:35:10.663Z,0.80
2022-08-23T16:37:38.034Z,1.05
2022-08-23T16:40:07.855Z,1.20
2022-08-23T16:42:35.480Z,1.13
2022-08-23T16:45:05.725Z,0.80
2022-08-23T16:47:37.634Z,1.25
2022-08-23T16:50:05.490Z,0.95
2022-08-23T16:52:34.751Z,1.30
2022-08-23T16:55:07.926Z,1.15
2022-08-23T16:57:35.242Z,1.23
2022-08-23T17:00:06.950Z,0.98
2022-08-23T17:02:36.544Z,0.88
2022-08-23T17:05:07.415Z,1.05
2022-08-23T17:07:34.877Z,1.08
2022-08-23T17:10:02.483Z,1.23
2022-08-23T17:12:31.287Z,0.85
2022-08-23T17:14:59.264Z,1.55
2022-08-23T17:17:26.598Z,1.38
2022-08-23T17:19:53.785Z,1.58
2022-08-23T17:22:20.991Z,1.30
2022-08-23T17:24:48.199Z,1.50
2022-08-23T17:27:20.641Z,1.10
2022-08-23T17:29:48.073Z,1.55
2022-08-23T17:32:16.785Z,1.08
2022-08-23T17:34:44.276Z,1.25
2022-08-23T17:37:21.914Z,1.25
2022-08-23T17:39:50.610Z,1.60
2022-08-23T17:42:21.456Z,1.53
2022-08-23T17:44:48.842Z,1.73
2022-08-23T17:47:18.117Z,1.65
2022-08-23T17:49:47.740Z,1.10
2022-08-23T17:52:15.667Z,1.48
2022-08-23T17:54:43.880Z,1.85
2022-08-23T17:57:11.980Z,1.92
2022-08-23T17:59:39.242Z,1.55
2022-08-23T18:02:07.809Z,1.05
2022-08-23T18:04:35.124Z,1.75
2022-08-23T18:07:02.640Z,1.77
2022-08-23T18:09:29.859Z,1.65
2022-08-23T18:11:57.238Z,2.20
2022-08-23T18:14:24.620Z,1.83
2022-08-23T18:16:52.139Z,2.00
2022-08-23T18:19:19.388Z,1.92
2022-08-23T18:21:46.870Z,2.08
2022-08-23T18:24:14.225Z,2.28
2022-08-23T18:27:00.868Z,2.13
2022-08-23T18:29:29.655Z,2.53
2022-08-23T18:31:56.971Z,1.90
2022-08-23T18:34:24.241Z,2.00
2022-08-23T18:36:51.372Z,2.28
2022-08-23T18:39:27.653Z,2.30
2022-08-23T18:42:04.294Z,2.78
2022-08-23T18:46:59.890Z,2.03
2022-08-23T18:49:27.091Z,1.95
2022-08-23T18:51:54.319Z,2.30
2022-08-23T18:54:21.573Z,2.67
2022-08-23T18:56:48.874Z,2.28
2022-08-23T18:59:16.006Z,2.42
2022-08-23T19:01:45.020Z,2.65
2022-08-23T19:04:14.465Z,2.47
2022-08-23T19:06:42.243Z,2.65
2022-08-23T19:09:12.985Z,1.92
2022-08-23T19:11:42.415Z,2.20
2022-08-23T19:14:12.566Z,1.77
2022-08-23T19:16:43.530Z,3.08
2022-08-23T19:19:15.162Z,2.20
2022-08-23T19:21:42.429Z,1.83
2022-08-23T19:24:10.204Z,2.03
2022-08-23T19:26:38.052Z,1.70
2022-08-23T19:29:08.576Z,1.52
2022-08-23T19:31:45.483Z,1.60
2022-08-23T19:34:12.858Z,2.05
2022-08-23T19:36:46.859Z,1.83
2022-08-23T19:39:17.858Z,1.70
2022-08-23T19:41:47.067Z,2.00
2022-08-23T19:44:17.761Z,1.40
2022-08-23T19:46:45.695Z,1.40
2022-08-23T19:49:14.653Z,1.45
2022-08-23T19:51:42.775Z,1.88
2022-08-23T19:54:12.615Z,1.33
2022-08-23T19:56:45.933Z,1.58
2022-08-23T19:59:16.664Z,1.42
2022-08-23T20:01:44.645Z,1.30
2022-08-23T20:04:13.075Z,1.70
2022-08-23T20:06:40.704Z,1.20
2022-08-23T20:09:10.511Z,1.40
2022-08-23T20:11:39.261Z,1.58
2022-08-23T20:14:07.014Z,1.15
2022-08-23T20:16:35.414Z,1.38
2022-08-23T20:19:03.864Z,1.42
2022-08-23T20:21:31.028Z,1.92
2022-08-23T20:24:01.511Z,2.13
2022-08-23T20:26:34.167Z,2.03
2022-08-23T20:29:03.403Z,1.33
2022-08-23T20:31:35.747Z,1.90
2022-08-23T20:36:34.568Z,1.60
2022-08-23T20:39:02.537Z,1.63
2022-08-23T20:41:34.205Z,1.75
2022-08-23T20:44:02.321Z,1.42
2022-08-23T20:46:29.991Z,1.77
2022-08-23T20:49:00.042Z,1.98
2022-08-23T20:51:28.617Z,1.77
2022-08-23T20:53:56.704Z,2.80
2022-08-23T20:56:25.207Z,1.70
2022-08-23T20:58:52.860Z,2.30
2022-08-23T21:01:21.426Z,1.88
2022-08-23T21:03:49.196Z,1.70
2022-08-23T21:06:20.977Z,1.95
2022-08-23T21:08:50.606Z,2.08
2022-08-23T21:11:23.128Z,2.05
2022-08-23T21:13:50.280Z,1.58
2022-08-23T21:16:18.228Z,2.25
2022-08-23T21:18:46.638Z,2.10
2022-08-23T21:21:13.852Z,2.40
2022-08-23T21:23:41.053Z,2.22
2022-08-23T21:26:09.382Z,2.15
2022-08-23T21:28:37.135Z,2.30
2022-08-23T21:31:07.537Z,2.38
2022-08-23T21:33:39.808Z,2.22
2022-08-23T21:36:08.694Z,2.00
2022-08-23T21:38:36.192Z,2.92
2022-08-23T21:41:07.756Z,1.90
2022-08-23T21:43:37.322Z,1.95
2022-08-23T21:46:05.490Z,2.45
2022-08-23T21:48:32.902Z,2.30
2022-08-23T21:51:00.176Z,2.22
2022-08-23T21:53:27.727Z,2.47
2022-08-23T21:55:55.017Z,2.45
2022-08-23T21:58:22.154Z,2.47
2022-08-23T22:00:49.429Z,2.85
2022-08-23T22:03:16.649Z,2.03
2022-08-23T22:05:48.062Z,2.50
2022-08-23T22:08:17.074Z,2.05
2022-08-23T22:10:57.430Z,2.25
2022-08-23T22:13:28.845Z,2.50
2022-08-23T22:15:56.430Z,1.75
2022-08-23T22:18:23.719Z,2.08
2022-08-23T22:20:50.882Z,2.42
2022-08-23T22:23:18.012Z,2.08
2022-08-23T22:25:45.236Z,2.10
2022-08-23T22:28:12.648Z,2.10
2022-08-23T22:30:42.884Z,2.20
2022-08-23T22:33:11.395Z,3.13
2022-08-23T22:35:41.518Z,2.60
2022-08-23T22:38:16.451Z,2.55
2022-08-23T22:40:52.636Z,2.38
2022-08-23T22:43:20.649Z,2.00
2022-08-23T22:45:52.122Z,2.60
2022-08-23T22:48:19.541Z,2.40
2022-08-23T22:50:47.175Z,2.75
2022-08-23T22:53:15.282Z,2.45
2022-08-23T22:55:42.748Z,3.00
2022-08-23T22:58:09.963Z,2.55
2022-08-23T23:00:42.541Z,2.47
2022-08-23T23:03:10.586Z,2.10
2022-08-23T23:05:38.370Z,3.10
2022-08-23T23:08:24.835Z,2.90
2022-08-23T23:10:52.003Z,2.50
2022-08-23T23:13:20.951Z,2.58
2022-08-23T23:15:48.140Z,2.55
2022-08-23T23:18:15.317Z,2.53
2022-08-23T23:20:42.495Z,2.97
2022-08-23T23:23:14.812Z,2.60
2022-08-23T23:25:43.222Z,3.25
2022-08-23T23:28:10.377Z,2.58
2022-08-23T23:30:37.604Z,2.45
2022-08-23T23:33:05.203Z,2.53
2022-08-23T23:35:34.384Z,2.60
2022-08-23T23:38:02.546Z,3.63
2022-08-23T23:40:29.971Z,2.75
2022-08-23T23:42:57.186Z,3.22
2022-08-23T23:45:24.352Z,3.05
2022-08-23T23:47:51.920Z,3.10
2022-08-23T23:50:19.394Z,2.78
2022-08-23T23:52:46.918Z,3.08
2022-08-23T23:55:17.053Z,3.00
2022-08-23T23:57:45.308Z,3.20
